Time;durP1;ratioP1;P1;durP2;ratioP2;P2;SDS_P1;SDS_P2;PMS_P1;PMS_P2;Temp;Humidity;BMP_temperature;BMP_pressure;BME280_temperature;BME280_humidity;BME280_pressure;Samples;Min_cycle;Max_cycle;Signal;HPM_P1;HPM_P2
2023/03/22 00:00:51;;;;;;;8.77;3.95;;;;;;;8.69;100.00;100909.47;5095240;28;20020;-68
2023/03/22 00:03:17;;;;;;;9.10;3.45;;;;;;;8.66;100.00;100909.84;5095242;28;20040;-67
2023/03/22 00:05:42;;;;;;;11.55;3.85;;;;;;;8.65;100.00;100913.53;5095321;28;20072;-67
2023/03/22 00:08:08;;;;;;;8.93;3.50;;;;;;;8.63;100.00;100907.56;5095172;28;20024;-67
2023/03/22 00:10:36;;;;;;;8.05;3.85;;;;;;;8.62;100.00;100905.88;5095082;28;20024;-67
2023/03/22 00:13:03;;;;;;;11.00;4.25;;;;;;;8.59;100.00;100912.41;5095092;28;20102;-68
2023/03/22 00:15:29;;;;;;;10.82;3.38;;;;;;;8.53;100.00;100902.50;5095082;28;20032;-68
2023/03/22 00:17:58;;;;;;;7.80;3.67;;;;;;;8.54;100.00;100902.34;5095103;28;20031;-67
2023/03/22 00:20:32;;;;;;;10.50;4.45;;;;;;;8.53;100.00;100899.84;5091485;28;20032;-67
2023/03/22 00:22:59;;;;;;;7.68;3.25;;;;;;;8.48;100.00;100888.94;5091737;28;20028;-67
2023/03/22 00:25:24;;;;;;;8.15;3.22;;;;;;;8.48;100.00;100899.56;5091857;28;20318;-67
2023/03/22 00:27:52;;;;;;;10.93;4.43;;;;;;;8.44;100.00;100891.13;5091752;28;20081;-67
2023/03/22 00:30:17;;;;;;;10.10;4.00;;;;;;;8.42;100.00;100881.69;5091653;28;20024;-68
2023/03/22 00:32:43;;;;;;;8.93;3.95;;;;;;;8.41;100.00;100877.38;5091580;28;20510;-68
2023/03/22 00:35:09;;;;;;;5.60;3.45;;;;;;;8.40;100.00;100873.88;5091597;28;20082;-67
2023/03/22 00:37:37;;;;;;;8.15;4.10;;;;;;;8.37;100.00;100871.56;5091529;28;20032;-67
2023/03/22 00:40:10;;;;;;;7.65;3.70;;;;;;;8.39;100.00;100866.94;5091614;28;20024;-67
2023/03/22 00:42:36;;;;;;;9.32;4.20;;;;;;;8.42;100.00;100865.75;5090084;28;20028;-67
2023/03/22 00:45:02;;;;;;;9.05;3.88;;;;;;;8.41;100.00;100862.28;5091712;28;20024;-67
2023/03/22 00:47:27;;;;;;;9.15;4.03;;;;;;;8.41;100.00;100862.28;5091283;28;20039;-68
2023/03/22 00:49:52;;;;;;;12.07;4.63;;;;;;;8.40;100.00;100857.94;5091280;28;20028;-67
2023/03/22 00:52:18;;;;;;;8.80;3.85;;;;;;;8.41;100.00;100850.78;5091298;28;20101;-67
2023/03/22 00:54:43;;;;;;;11.55;4.63;;;;;;;8.40;100.00;100841.19;5091274;28;20127;-67
2023/03/22 00:57:09;;;;;;;8.65;3.90;;;;;;;8.38;100.00;100840.50;5091111;28;20036;-67
2023/03/22 00:59:37;;;;;;;12.88;4.20;;;;;;;8.35;100.00;100833.72;5091282;28;20028;-67
2023/03/22 01:02:04;;;;;;;10.80;3.80;;;;;;;8.37;100.00;100837.03;5091128;28;20060;-67
2023/03/22 01:04:30;;;;;;;9.27;3.67;;;;;;;8.37;100.00;100841.53;5090931;28;20028;-67
2023/03/22 01:06:59;;;;;;;13.00;4.93;;;;;;;8.35;100.00;100833.72;5091187;28;20028;-68
2023/03/22 01:09:28;;;;;;;12.48;5.50;;;;;;;8.35;100.00;100831.88;5091010;28;20142;-68
2023/03/22 01:11:57;;;;;;;9.43;4.82;;;;;;;8.35;100.00;100826.56;5091012;28;20414;-68
2023/03/22 01:14:24;;;;;;;6.10;3.95;;;;;;;8.31;100.00;100814.66;5090889;28;20024;-68
2023/03/22 01:16:50;;;;;;;19.02;4.18;;;;;;;8.38;100.00;100821.91;5090771;28;20123;-67
2023/03/22 01:19:15;;;;;;;12.80;4.18;;;;;;;8.38;100.00;100813.91;5090852;28;20111;-67
2023/03/22 01:21:41;;;;;;;10.27;4.18;;;;;;;8.36;100.00;100819.44;5071246;28;20116;-67
2023/03/22 01:24:06;;;;;;;11.20;4.93;;;;;;;8.34;100.00;100808.97;5071105;28;20029;-67
2023/03/22 01:26:32;;;;;;;10.90;5.07;;;;;;;8.33;100.00;100810.00;5071326;28;20029;-67
2023/03/22 01:28:57;;;;;;;20.48;7.55;;;;;;;8.35;100.00;100801.81;5071331;28;20036;-67
2023/03/22 01:31:23;;;;;;;11.48;4.65;;;;;;;8.37;100.00;100796.34;5070392;28;20091;-67
2023/03/22 01:33:48;;;;;;;10.88;4.60;;;;;;;8.36;100.00;100790.22;5071092;28;20507;-67
2023/03/22 01:36:13;;;;;;;10.40;4.93;;;;;;;8.38;100.00;100777.53;5070954;28;20115;-67
2023/03/22 01:38:39;;;;;;;12.18;6.25;;;;;;;8.43;100.00;100775.19;5071020;28;20438;-67
2023/03/22 01:41:05;;;;;;;11.60;6.15;;;;;;;8.49;100.00;100763.03;5070965;28;20064;-68
2023/03/22 01:43:30;;;;;;;13.55;5.50;;;;;;;8.51;100.00;100753.00;5070840;28;20471;-67
2023/03/22 01:45:56;;;;;;;17.48;6.88;;;;;;;8.53;100.00;100748.34;5070586;28;20032;-67
2023/03/22 01:48:33;;;;;;;14.52;6.93;;;;;;;8.59;100.00;100752.06;5070656;28;20040;-68
2023/03/22 01:51:12;;;;;;;14.45;7.15;;;;;;;8.63;100.00;100748.88;5070977;28;20044;-68
2023/03/22 01:53:47;;;;;;;13.75;6.72;;;;;;;8.65;100.00;100738.88;5089887;28;20032;-68
2023/03/22 01:56:12;;;;;;;12.07;6.03;;;;;;;8.72;100.00;100736.28;5089874;28;20052;-67
2023/03/22 01:58:40;;;;;;;16.88;7.07;;;;;;;8.76;100.00;100725.09;5089896;28;20081;-67
2023/03/22 02:01:07;;;;;;;17.38;6.75;;;;;;;8.78;100.00;100720.41;5090134;28;20447;-68
2023/03/22 02:03:54;;;;;;;15.27;7.22;;;;;;;8.84;100.00;100723.34;5089915;28;20042;-68
2023/03/22 02:06:20;;;;;;;21.10;8.73;;;;;;;8.86;100.00;100713.34;5089783;28;20082;-72
2023/03/22 02:08:45;;;;;;;14.85;6.93;;;;;;;8.88;100.00;100716.59;5089821;28;20028;-72
2023/03/22 02:11:42;;;;;;;18.73;7.55;;;;;;;8.90;100.00;100706.59;5088467;28;20031;-72
2023/03/22 02:14:32;;;;;;;16.38;7.38;;;;;;;8.93;100.00;100709.72;5089608;28;20020;-72
2023/03/22 02:17:43;;;;;;;18.33;7.75;;;;;;;8.92;100.00;100699.28;5070137;28;20552;-72
2023/03/22 02:20:37;;;;;;;15.85;7.53;;;;;;;8.97;100.00;100703.00;5080685;28;20036;-72
2023/03/22 02:23:27;;;;;;;18.20;8.13;;;;;;;8.99;100.00;100698.31;5089458;28;20034;-72
2023/03/22 02:25:55;;;;;;;15.57;8.00;;;;;;;9.01;100.00;100698.13;5089552;28;20107;-72
2023/03/22 02:28:59;;;;;;;15.90;7.45;;;;;;;9.03;100.00;100695.28;5089540;28;20035;-72
2023/03/22 02:31:33;;;;;;;16.48;8.25;;;;;;;9.04;100.00;100700.41;5088141;28;20555;-72
2023/03/22 02:34:20;;;;;;;20.10;8.80;;;;;;;9.05;100.00;100687.94;5089270;28;20555;-72
2023/03/22 02:37:00;;;;;;;14.98;7.97;;;;;;;9.04;100.00;100694.25;5089338;28;20035;-72
2023/03/22 02:39:38;;;;;;;16.83;7.25;;;;;;;9.04;100.00;100687.13;5089396;28;20028;-72
2023/03/22 02:42:16;;;;;;;15.10;7.32;;;;;;;9.05;100.00;100679.97;5088924;28;20060;-72
2023/03/22 02:44:55;;;;;;;16.35;7.13;;;;;;;9.06;100.00;100676.28;5089026;28;20036;-72
2023/03/22 02:47:50;;;;;;;15.60;7.15;;;;;;;9.00;100.00;100689.31;5089282;28;20039;-72
2023/03/22 02:50:27;;;;;;;15.82;6.65;;;;;;;9.02;100.00;100691.81;5089096;28;20028;-72
2023/03/22 02:53:14;;;;;;;14.85;6.32;;;;;;;9.02;100.00;100681.16;5088998;28;20414;-72
2023/03/22 02:55:59;;;;;;;16.98;6.25;;;;;;;9.05;100.00;100677.28;5089215;28;20020;-72
2023/03/22 02:58:29;;;;;;;17.48;6.78;;;;;;;9.05;100.00;100677.28;5089811;28;20352;-72
2023/03/22 03:01:01;;;;;;;16.42;7.22;;;;;;;9.10;100.00;100674.88;5069456;28;20020;-72
2023/03/22 03:03:29;;;;;;;13.98;6.45;;;;;;;9.12;100.00;100671.03;5089458;28;20085;-72
2023/03/22 03:05:59;;;;;;;14.85;7.45;;;;;;;9.15;100.00;100667.97;5089165;28;20368;-72
2023/03/22 03:08:26;;;;;;;24.25;8.48;;;;;;;9.18;100.00;100664.13;5069632;28;20016;-72
2023/03/22 03:10:53;;;;;;;12.45;6.50;;;;;;;9.17;100.00;100663.28;5088736;28;20101;-72
2023/03/22 03:13:18;;;;;;;15.95;5.32;;;;;;;9.19;100.00;100663.09;5088863;28;20028;-72
2023/03/22 03:15:49;;;;;;;9.65;5.13;;;;;;;9.19;100.00;100657.75;5089160;28;20081;-72
2023/03/22 03:18:33;;;;;;;14.20;6.03;;;;;;;9.20;100.00;100664.75;5069459;28;20029;-72
2023/03/22 03:21:31;;;;;;;13.50;5.90;;;;;;;9.19;100.00;100663.91;5081047;28;20024;-72
2023/03/22 03:24:19;;;;;;;13.75;5.95;;;;;;;9.20;100.00;100667.41;5088772;28;20055;-72
2023/03/22 03:27:02;;;;;;;13.73;5.03;;;;;;;9.20;100.00;100665.56;5088745;28;20039;-72
2023/03/22 03:29:45;;;;;;;9.55;5.25;;;;;;;9.19;100.00;100660.41;5088827;28;20112;-72
2023/03/22 03:32:19;;;;;;;7.22;3.97;;;;;;;9.18;100.00;100654.28;5088555;28;20547;-72
2023/03/22 03:34:50;;;;;;;9.13;4.78;;;;;;;9.19;100.00;100652.44;5088648;28;20020;-72
2023/03/22 03:37:22;;;;;;;9.32;4.82;;;;;;;9.18;100.00;100648.97;5088651;28;20032;-72
2023/03/22 03:39:57;;;;;;;10.85;5.30;;;;;;;9.19;100.00;100645.28;5088677;28;20471;-72
2023/03/22 03:42:27;;;;;;;15.27;5.85;;;;;;;9.17;100.00;100650.00;5088823;28;20093;-72
2023/03/22 03:44:52;;;;;;;7.78;4.05;;;;;;;9.18;100.00;100651.63;5089025;28;20028;-72
2023/03/22 03:47:19;;;;;;;10.52;4.22;;;;;;;9.18;100.00;100651.63;5088611;28;20090;-72
2023/03/22 03:49:45;;;;;;;10.05;4.72;;;;;;;9.18;100.00;100656.13;5088750;28;20032;-72
2023/03/22 03:52:12;;;;;;;11.95;4.75;;;;;;;9.14;100.00;100647.72;5088636;28;20542;-72
2023/03/22 03:54:37;;;;;;;6.82;4.07;;;;;;;9.11;100.00;100647.25;5090025;28;20103;-72
2023/03/22 03:57:03;;;;;;;16.15;5.13;;;;;;;9.11;100.00;100661.38;5092369;28;20152;-72
2023/03/22 03:59:28;;;;;;;10.13;4.63;;;;;;;9.09;100.00;100658.13;5092304;28;20465;-72
2023/03/22 04:01:53;;;;;;;9.50;4.03;;;;;;;9.06;100.00;100663.78;5092262;28;20117;-72
2023/03/22 04:04:25;;;;;;;10.80;4.43;;;;;;;9.03;100.00;100661.50;5092120;28;20028;-72
2023/03/22 04:06:58;;;;;;;10.73;3.75;;;;;;;8.97;100.00;100660.44;5092321;28;20036;-72
2023/03/22 04:09:26;;;;;;;9.90;4.50;;;;;;;8.97;100.00;100656.97;5072722;28;20035;-72
2023/03/22 04:11:52;;;;;;;9.82;3.72;;;;;;;8.91;100.00;100649.75;5072615;28;20024;-72
2023/03/22 04:14:17;;;;;;;6.30;3.72;;;;;;;8.90;100.00;100654.22;5072525;28;20032;-72
2023/03/22 04:16:43;;;;;;;13.30;3.85;;;;;;;8.86;100.00;100647.66;5072735;28;20024;-72
2023/03/22 04:19:08;;;;;;;8.80;3.67;;;;;;;8.84;100.00;100646.22;5072677;28;20032;-72
2023/03/22 04:21:34;;;;;;;8.43;4.13;;;;;;;8.78;100.00;100637.97;5072370;28;20033;-72
2023/03/22 04:23:59;;;;;;;7.15;3.65;;;;;;;8.77;100.00;100641.63;5072409;28;20176;-72
2023/03/22 04:26:25;;;;;;;12.32;4.80;;;;;;;8.77;100.00;100651.44;5072369;28;20036;-72
2023/03/22 04:28:50;;;;;;;6.13;4.00;;;;;;;8.76;100.00;100640.00;5072658;28;20395;-72
2023/03/22 04:31:17;;;;;;;10.70;4.15;;;;;;;8.75;100.00;100638.38;5071951;28;20507;-72
2023/03/22 04:33:45;;;;;;;13.55;5.90;;;;;;;8.70;100.00;100629.31;5072367;28;20036;-72
2023/03/22 04:36:14;;;;;;;8.93;3.83;;;;;;;8.77;100.00;100632.84;5072386;28;20043;-72
2023/03/22 04:38:40;;;;;;;10.98;3.38;;;;;;;8.76;100.00;100633.88;5072151;28;20107;-72
2023/03/22 04:41:06;;;;;;;7.60;3.53;;;;;;;8.72;100.00;100629.94;5072041;28;20379;-72
2023/03/22 04:43:33;;;;;;;9.35;3.40;;;;;;;8.74;100.00;100634.03;5071958;28;20082;-72
2023/03/22 04:46:00;;;;;;;9.98;3.83;;;;;;;8.71;100.00;100631.75;5091315;28;20380;-72
2023/03/22 04:48:26;;;;;;;6.65;4.05;;;;;;;8.69;100.00;100633.78;5091231;28;20024;-72
2023/03/22 04:50:52;;;;;;;8.98;4.00;;;;;;;8.67;100.00;100635.00;5091368;28;20024;-72
2023/03/22 04:53:18;;;;;;;8.93;4.53;;;;;;;8.65;100.00;100629.88;5091234;28;20035;-72
2023/03/22 04:55:44;;;;;;;9.75;3.55;;;;;;;8.64;100.00;100628.22;5091418;28;20063;-72
2023/03/22 04:58:09;;;;;;;10.15;3.42;;;;;;;8.61;100.00;100625.94;5091093;28;20093;-72
2023/03/22 05:00:36;;;;;;;8.73;3.30;;;;;;;8.61;100.00;100620.63;5091214;28;20033;-72
2023/03/22 05:03:02;;;;;;;15.48;3.33;;;;;;;8.62;100.00;100624.94;5091094;28;20111;-72
2023/03/22 05:05:28;;;;;;;7.22;3.97;;;;;;;8.68;100.00;100623.34;5090465;28;20060;-72
2023/03/22 05:07:55;;;;;;;10.23;3.65;;;;;;;8.68;100.00;100626.84;5090917;28;20078;-72
2023/03/22 05:10:20;;;;;;;9.18;4.03;;;;;;;8.70;100.00;100626.66;5091218;28;20034;-72
2023/03/22 05:12:46;;;;;;;10.05;3.35;;;;;;;8.73;100.00;100623.63;5091019;28;20107;-72
2023/03/22 05:15:12;;;;;;;6.40;3.58;;;;;;;8.74;100.00;100620.75;5090831;28;20069;-72
2023/03/22 05:17:37;;;;;;;9.18;2.97;;;;;;;8.76;100.00;100618.72;5090828;28;20047;-72
2023/03/22 05:20:08;;;;;;;9.50;4.07;;;;;;;8.78;100.00;100624.69;5090763;28;20092;-72
2023/03/22 05:22:33;;;;;;;7.40;3.25;;;;;;;8.80;100.00;100613.03;5090510;28;20085;-72
2023/03/22 05:24:59;;;;;;;6.80;3.22;;;;;;;8.81;100.00;100609.38;5090489;28;20484;-72
2023/03/22 05:27:30;;;;;;;6.82;3.63;;;;;;;8.82;100.00;100613.66;5090725;28;20020;-72
2023/03/22 05:29:55;;;;;;;5.28;2.65;;;;;;;8.81;100.00;100617.34;5090732;28;20028;-72
2023/03/22 05:32:24;;;;;;;6.00;3.33;;;;;;;8.81;100.00;100612.03;5090411;28;20067;-72
2023/03/22 05:34:50;;;;;;;7.32;3.20;;;;;;;8.78;100.00;100615.88;5090342;28;20034;-72
2023/03/22 05:37:15;;;;;;;7.80;3.97;;;;;;;8.78;100.00;100613.22;5090532;28;20286;-72
2023/03/22 05:39:41;;;;;;;11.10;3.72;;;;;;;8.80;100.00;100615.69;5090441;28;20625;-72
2023/03/22 05:42:06;;;;;;;4.82;2.47;;;;;;;8.82;100.00;100625.13;5090377;28;20432;-72
2023/03/22 05:44:32;;;;;;;9.23;4.18;;;;;;;8.82;100.00;100621.63;5090328;28;20117;-72
2023/03/22 05:46:57;;;;;;;8.00;4.10;;;;;;;8.84;100.00;100614.31;5090367;28;20032;-72
2023/03/22 05:49:23;;;;;;;7.75;2.72;;;;;;;8.83;100.00;100613.47;5090084;28;20115;-72
2023/03/22 05:51:49;;;;;;;9.15;3.63;;;;;;;8.87;100.00;100600.63;5088634;28;20469;-72
2023/03/22 05:54:14;;;;;;;6.95;2.30;;;;;;;8.87;100.00;100616.56;5090223;28;20020;-72
2023/03/22 05:56:40;;;;;;;7.63;2.42;;;;;;;8.82;100.00;100608.34;5090017;28;20040;-72
2023/03/22 05:59:05;;;;;;;9.55;3.17;;;;;;;8.81;100.00;100612.84;5089148;28;20024;-72
2023/03/22 06:01:32;;;;;;;12.65;2.83;;;;;;;8.80;100.00;100613.03;5089767;28;20111;-72
2023/03/22 06:03:57;;;;;;;7.40;2.63;;;;;;;8.82;100.00;100611.00;5089765;28;20383;-72
2023/03/22 06:06:23;;;;;;;7.10;2.92;;;;;;;8.82;100.00;100617.13;5075675;28;20031;-72
2023/03/22 06:08:48;;;;;;;5.22;2.85;;;;;;;8.84;100.00;100612.47;5070383;28;20024;-72
2023/03/22 06:11:14;;;;;;;9.57;3.15;;;;;;;8.87;100.00;100614.72;5070229;28;20068;-72
2023/03/22 06:13:39;;;;;;;6.75;2.97;;;;;;;8.88;100.00;100608.41;5070080;28;20479;-72
2023/03/22 06:16:05;;;;;;;10.00;3.45;;;;;;;8.94;100.00;100615.63;5068824;28;20063;-71
2023/03/22 06:18:31;;;;;;;7.68;3.05;;;;;;;8.96;100.00;100613.59;5069147;28;20028;-72
2023/03/22 06:20:57;;;;;;;5.63;2.35;;;;;;;9.00;100.00;100614.03;5070314;28;20486;-72
2023/03/22 06:23:22;;;;;;;16.23;4.10;;;;;;;9.01;100.00;100605.00;5072358;28;20024;-72
2023/03/22 06:25:48;;;;;;;8.88;2.92;;;;;;;9.03;100.00;100604.84;5088866;28;20483;-72
2023/03/22 06:28:13;;;;;;;9.82;3.10;;;;;;;9.06;100.00;100609.75;5076319;28;20044;-72
2023/03/22 06:30:38;;;;;;;7.65;3.35;;;;;;;9.09;100.00;100599.59;5069617;28;20024;-72
2023/03/22 06:33:05;;;;;;;6.57;2.40;;;;;;;9.13;100.00;100606.16;5069154;28;20109;-71
2023/03/22 06:35:34;;;;;;;13.13;3.05;;;;;;;9.17;100.00;100610.06;5085048;28;20039;-72
2023/03/22 06:38:00;;;;;;;7.22;2.97;;;;;;;9.22;100.00;100609.47;5080171;28;20032;-77
2023/03/22 06:40:26;;;;;;;7.90;2.70;;;;;;;9.35;100.00;100611.41;5076961;28;20036;-76
2023/03/22 06:42:53;;;;;;;10.00;3.20;;;;;;;9.47;100.00;100601.06;5089041;28;20035;-76
2023/03/22 06:45:19;;;;;;;7.38;3.10;;;;;;;9.59;100.00;100607.50;5088730;28;20040;-76
2023/03/22 06:47:45;;;;;;;9.88;4.18;;;;;;;9.61;100.00;100616.06;5088730;28;20043;-76
2023/03/22 06:50:10;;;;;;;5.60;3.17;;;;;;;9.60;100.00;100604.63;5088697;28;20390;-76
2023/03/22 06:52:36;;;;;;;8.20;3.35;;;;;;;9.55;100.00;100593.72;5088695;28;20024;-76
2023/03/22 06:55:02;;;;;;;7.38;3.22;;;;;;;9.59;100.00;100608.31;5087915;28;20031;-77
2023/03/22 06:57:27;;;;;;;9.18;3.72;;;;;;;9.64;100.00;100602.38;5088991;28;20092;-77
2023/03/22 06:59:52;;;;;;;5.47;2.78;;;;;;;9.68;100.00;100608.97;5088907;28;20440;-76
2023/03/22 07:02:18;;;;;;;11.30;3.22;;;;;;;9.73;100.00;100611.84;5087658;28;20090;-77
2023/03/22 07:04:45;;;;;;;5.70;3.42;;;;;;;9.79;100.00;100618.22;5086122;28;20040;-77
2023/03/22 07:07:10;;;;;;;5.18;3.22;;;;;;;9.83;100.00;100609.66;5088696;28;20101;-77
2023/03/22 07:09:38;;;;;;;5.78;2.97;;;;;;;9.92;100.00;100607.63;5071420;28;20039;-77
2023/03/22 07:12:04;;;;;;;7.65;3.42;;;;;;;10.12;100.00;100605.06;5069587;28;20025;-77
2023/03/22 07:14:29;;;;;;;11.68;3.47;;;;;;;10.36;100.00;100613.56;5069540;28;20052;-77
2023/03/22 07:16:55;;;;;;;8.30;3.08;;;;;;;10.43;100.00;100590.44;5069953;28;20059;-77
2023/03/22 07:19:20;;;;;;;13.13;5.40;;;;;;;10.56;100.00;100610.94;5069432;28;20091;-77
2023/03/22 07:21:46;;;;;;;8.52;3.95;;;;;;;10.51;100.00;100600.91;5069401;28;20037;-77
2023/03/22 07:24:12;;;;;;;7.18;3.10;;;;;;;10.47;100.00;100611.13;5072246;28;20059;-77
2023/03/22 07:26:38;;;;;;;5.82;3.45;;;;;;;10.38;100.00;100599.03;5088819;28;20048;-77
2023/03/22 07:29:03;;;;;;;9.88;3.67;;;;;;;10.36;100.00;100606.41;5076758;28;20107;-76
2023/03/22 07:31:30;;;;;;;10.38;3.15;;;;;;;10.28;100.00;100598.59;5073252;28;20083;-77
2023/03/22 07:33:55;;;;;;;11.77;3.80;;;;;;;10.36;100.00;100614.38;5073171;28;20060;-76
2023/03/22 07:36:22;;;;;;;11.80;5.25;;;;;;;10.37;100.00;100616.03;5073364;28;20445;-76
2023/03/22 07:38:49;;;;;;;10.20;3.67;;;;;;;10.44;100.00;100618.72;5092590;28;20028;-76
2023/03/22 07:41:15;;;;;;;11.45;3.72;;;;;;;10.48;100.00;100627.97;5092575;28;20375;-76
2023/03/22 07:43:41;;;;;;;19.42;5.32;;;;;;;10.51;100.00;100614.22;5092308;28;20036;-76
2023/03/22 07:46:06;;;;;;;11.60;4.28;;;;;;;10.55;100.00;100615.44;5087456;28;20521;-76
2023/03/22 07:48:33;;;;;;;10.90;4.40;;;;;;;10.55;100.00;100614.63;5073038;28;20487;-76
2023/03/22 07:50:58;;;;;;;8.27;3.85;;;;;;;10.63;100.00;100614.44;5073201;28;20513;-76
2023/03/22 07:53:24;;;;;;;9.85;4.60;;;;;;;10.68;100.00;100620.81;5072853;28;20024;-76
2023/03/22 07:55:49;;;;;;;7.47;3.72;;;;;;;10.75;100.00;100615.50;5071619;28;20028;-77
2023/03/22 07:58:15;;;;;;;10.25;3.58;;;;;;;10.89;100.00;100625.16;5072244;28;20028;-76
2023/03/22 08:00:40;;;;;;;9.35;3.50;;;;;;;10.90;100.00;100605.47;5072506;28;20383;-76
2023/03/22 08:03:05;;;;;;;10.43;4.15;;;;;;;11.09;100.00;100617.16;5069873;28;20032;-77
2023/03/22 08:05:31;;;;;;;7.60;3.55;;;;;;;11.15;100.00;100618.16;5072346;28;20415;-76
2023/03/22 08:07:56;;;;;;;11.82;3.85;;;;;;;11.30;100.00;100609.97;5071452;28;20044;-76
2023/03/22 08:10:22;;;;;;;9.80;3.08;;;;;;;11.44;100.00;100621.44;5072411;28;20035;-76
2023/03/22 08:12:47;;;;;;;10.90;4.05;;;;;;;11.48;99.85;100614.66;5072861;28;20036;-76
2023/03/22 08:15:12;;;;;;;11.00;2.85;;;;;;;11.39;97.59;100614.84;5073981;28;20502;-77
2023/03/22 08:17:38;;;;;;;6.32;3.22;;;;;;;11.31;98.58;100611.59;5075392;28;20448;-69
2023/03/22 08:20:07;;;;;;;8.82;2.70;;;;;;;11.36;97.48;100623.28;5073499;28;20019;-68
2023/03/22 08:22:36;;;;;;;10.13;3.27;;;;;;;11.34;97.40;100629.84;5075739;28;20115;-67
2023/03/22 08:25:03;;;;;;;6.13;2.00;;;;;;;11.47;98.35;100626.34;5075315;28;20236;-69
2023/03/22 08:27:29;;;;;;;5.38;2.70;;;;;;;11.61;96.13;100636.81;5074858;28;20028;-68
2023/03/22 08:29:54;;;;;;;9.35;3.30;;;;;;;11.60;95.05;100640.50;5090192;28;20035;-68
2023/03/22 08:32:20;;;;;;;29.27;4.25;;;;;;;11.66;94.70;100643.38;5091469;28;20048;-68
2023/03/22 08:34:46;;;;;;;6.47;2.50;;;;;;;11.65;94.82;100631.06;5091639;28;20154;-67
2023/03/22 08:37:12;;;;;;;12.63;2.88;;;;;;;11.68;95.34;100623.44;5091311;28;20036;-67
2023/03/22 08:39:38;;;;;;;3.90;2.00;;;;;;;11.76;94.83;100630.41;5091515;28;20049;-68
2023/03/22 08:42:03;;;;;;;8.20;2.28;;;;;;;11.87;93.62;100631.63;5090413;28;20114;-67
2023/03/22 08:44:29;;;;;;;9.18;2.38;;;;;;;11.91;93.31;100612.28;5091236;28;20032;-68
2023/03/22 08:46:54;;;;;;;5.75;2.35;;;;;;;12.03;93.25;100618.63;5090261;28;20490;-68
2023/03/22 08:49:20;;;;;;;10.88;2.25;;;;;;;12.10;91.91;100620.44;5091237;28;20035;-68
2023/03/22 08:51:46;;;;;;;6.57;3.00;;;;;;;12.18;91.74;100606.84;5091344;28;20032;-68
2023/03/22 08:54:11;;;;;;;10.95;3.30;;;;;;;12.23;90.81;100623.06;5091137;28;20024;-67
2023/03/22 08:56:37;;;;;;;9.15;2.30;;;;;;;12.23;89.87;100612.38;5091060;28;20032;-68
2023/03/22 08:59:07;;;;;;;10.18;2.67;;;;;;;12.31;91.37;100619.31;5090968;28;20035;-68
2023/03/22 09:01:34;;;;;;;6.20;1.92;;;;;;;12.43;91.60;100606.91;5091247;28;20106;-69
2023/03/22 09:03:59;;;;;;;8.35;2.05;;;;;;;12.45;89.74;100607.53;5090881;28;20380;-69
2023/03/22 09:06:25;;;;;;;5.25;2.08;;;;;;;12.48;90.17;100607.91;5090988;28;20027;-69
2023/03/22 09:08:52;;;;;;;9.55;2.40;;;;;;;12.44;87.86;100608.53;5090972;28;20099;-68
2023/03/22 09:11:17;;;;;;;10.27;2.25;;;;;;;12.36;87.04;100609.63;5089351;28;20043;-69
2023/03/22 09:13:43;;;;;;;10.85;3.38;;;;;;;12.35;87.65;100604.50;5090681;28;20027;-68
2023/03/22 09:16:08;;;;;;;11.93;2.85;;;;;;;12.44;89.11;100593.34;5090726;28;20095;-68
2023/03/22 09:18:38;;;;;;;6.18;1.80;;;;;;;12.49;87.40;100606.03;5091000;28;20038;-67
2023/03/22 09:21:07;;;;;;;4.20;1.83;;;;;;;12.54;88.49;100590.16;5075425;28;20024;-68
2023/03/22 09:23:34;;;;;;;3.47;1.45;;;;;;;12.63;86.77;100596.09;5090780;28;20063;-68
2023/03/22 09:26:02;;;;;;;8.80;2.67;;;;;;;12.72;87.11;100600.13;5091116;28;20399;-69
2023/03/22 09:28:28;;;;;;;7.05;2.15;;;;;;;12.83;87.03;100599.44;5090565;28;20058;-68
2023/03/22 09:30:54;;;;;;;9.70;2.80;;;;;;;13.00;84.73;100588.19;5090394;28;20442;-68
2023/03/22 09:33:19;;;;;;;6.45;2.30;;;;;;;13.00;84.80;100585.53;5090354;28;20052;-68
2023/03/22 09:35:45;;;;;;;7.85;2.90;;;;;;;12.96;85.04;100584.31;5090378;28;20059;-69
2023/03/22 09:38:11;;;;;;;6.35;2.20;;;;;;;12.96;84.88;100584.31;5090315;28;20020;-69
2023/03/22 09:40:45;;;;;;;8.05;2.58;;;;;;;12.82;82.84;100587.09;5090398;28;20067;-68
2023/03/22 09:43:14;;;;;;;8.85;2.30;;;;;;;12.72;83.32;100587.56;5090190;28;20054;-69
2023/03/22 09:45:44;;;;;;;7.15;2.22;;;;;;;12.68;83.85;100583.72;5090525;28;20118;-69
2023/03/22 09:48:26;;;;;;;7.53;2.10;;;;;;;12.66;85.17;100583.09;5089110;28;20097;-67
2023/03/22 09:50:53;;;;;;;5.75;2.05;;;;;;;12.67;86.53;100587.41;5090083;28;20629;-67
2023/03/22 09:53:21;;;;;;;11.27;2.30;;;;;;;12.59;84.78;100579.66;5089866;28;20020;-67
2023/03/22 09:55:54;;;;;;;5.57;2.25;;;;;;;12.64;84.62;100582.50;5088819;28;20024;-68
2023/03/22 09:58:37;;;;;;;6.95;2.20;;;;;;;12.61;84.57;100574.91;5088753;28;20029;-68
2023/03/22 10:01:12;;;;;;;5.32;1.92;;;;;;;12.45;83.46;100589.63;5089797;28;20036;-68
2023/03/22 10:04:02;;;;;;;11.95;3.25;;;;;;;12.38;84.73;100585.34;5089725;28;20115;-68
2023/03/22 10:06:29;;;;;;;6.45;1.70;;;;;;;12.26;84.02;100564.63;5090244;28;20486;-68
2023/03/22 10:09:18;;;;;;;3.47;1.65;;;;;;;12.29;84.36;100579.44;5070335;28;20378;-68
2023/03/22 10:11:48;;;;;;;3.75;2.45;;;;;;;12.26;84.46;100595.88;5089865;28;20024;-68
2023/03/22 10:14:16;;;;;;;8.63;1.92;;;;;;;12.17;85.32;100587.31;5070009;28;20031;-68
2023/03/22 10:16:43;;;;;;;10.65;2.75;;;;;;;12.13;86.61;100591.44;5070193;28;20028;-68
2023/03/22 10:19:31;;;;;;;9.00;2.58;;;;;;;12.10;86.75;100580.34;5089594;28;20100;-67
2023/03/22 10:22:01;;;;;;;6.97;1.90;;;;;;;12.05;85.36;100580.97;5089363;28;20020;-68
2023/03/22 10:24:30;;;;;;;3.03;1.45;;;;;;;12.04;86.72;100584.69;5082782;28;20476;-68
2023/03/22 10:26:56;;;;;;;12.65;2.72;;;;;;;12.00;86.65;100589.66;5070280;28;20027;-68
2023/03/22 10:29:38;;;;;;;10.48;3.13;;;;;;;11.97;86.59;100586.56;5069215;28;20388;-69
2023/03/22 10:32:15;;;;;;;6.05;1.50;;;;;;;11.93;89.14;100580.84;5069941;28;20067;-72
2023/03/22 10:34:42;;;;;;;6.38;1.70;;;;;;;11.80;89.58;100592.38;5070159;28;20024;-72
2023/03/22 10:37:13;;;;;;;4.40;1.42;;;;;;;11.69;90.60;100590.34;5078989;28;20052;-72
2023/03/22 10:39:45;;;;;;;9.77;2.05;;;;;;;11.62;91.71;100597.56;5088914;28;20028;-72
2023/03/22 10:42:13;;;;;;;;;;;;;;;11.65;91.99;100602.47;5089844;28;20028;-72
2023/03/22 10:44:46;;;;;;;5.05;1.92;;;;;;;11.53;93.70;100602.31;5089331;28;19938;-72
2023/03/22 10:47:18;;;;;;;4.35;1.50;;;;;;;11.43;95.62;100595.78;5086446;28;20024;-72
2023/03/22 10:49:48;;;;;;;3.38;1.67;;;;;;;11.40;97.42;100602.34;5074869;28;20074;-72
2023/03/22 10:52:32;;;;;;;7.40;2.28;;;;;;;11.41;97.83;100598.63;5079526;28;20028;-72
2023/03/22 10:54:57;;;;;;;9.82;2.88;;;;;;;11.35;100.00;100602.97;5089322;28;20042;-72
2023/03/22 10:57:24;;;;;;;4.85;1.67;;;;;;;11.41;100.00;100599.44;5089485;28;20023;-72
2023/03/22 10:59:54;;;;;;;9.13;2.63;;;;;;;11.39;100.00;100592.69;5089361;28;20046;-72
2023/03/22 11:02:22;;;;;;;16.20;3.25;;;;;;;11.54;100.00;100606.63;5089216;28;20032;-72
2023/03/22 11:04:54;;;;;;;8.35;2.55;;;;;;;11.70;100.00;100610.69;5088497;28;20548;-72
2023/03/22 11:07:34;;;;;;;;;;;;;;;11.77;100.00;100600.81;5077742;28;20495;-72
2023/03/22 11:10:03;;;;;;;5.45;2.72;;;;;;;11.69;100.00;100609.06;5087621;28;19914;-72
2023/03/22 11:12:28;;;;;;;5.50;1.83;;;;;;;11.59;100.00;100608.66;5089012;28;20372;-72
2023/03/22 11:14:55;;;;;;;5.05;2.63;;;;;;;11.47;100.00;100599.66;5088853;28;20039;-72
2023/03/22 11:17:24;;;;;;;12.00;3.22;;;;;;;11.42;100.00;100597.59;5088963;28;20039;-72
2023/03/22 11:19:57;;;;;;;4.80;1.85;;;;;;;11.31;100.00;100588.38;5069504;28;20121;-72
2023/03/22 11:22:33;;;;;;;11.68;2.95;;;;;;;11.35;100.00;100580.78;5069483;28;20024;-72
2023/03/22 11:25:00;;;;;;;6.28;2.40;;;;;;;11.38;100.00;100599.06;5069210;28;20021;-72
2023/03/22 11:27:29;;;;;;;4.88;2.38;;;;;;;11.40;100.00;100597.00;5069459;28;20036;-72
2023/03/22 11:29:58;;;;;;;7.47;2.22;;;;;;;11.40;100.00;100602.34;5069413;28;20070;-72